岡山グライダークラブ活動状況掲示板

岡山グライダークラブ
岡山市浦安南町639-1 岡南飛行場
 使用機:シャイベ式 SF25C型 ファルケ   JA2330
      ヴァレンティン式17E型 タイフーン  JA2342
 練習日:毎日曜日  クラブルーム:電話 086-265-1810
この掲示板は岡山グライダークラブの活動状況をお知らせする掲示板です。
!!!この掲示板は投稿規制をしています。!!!
クラブ関連各種情報は 岡山グライダークラブクラブルーム      を       .
  ブリーフイング情報は  岡山グライダークラブブリーフィングルーム  をご覧下さい。 .
※写真はクリックすると拡大して見ることが出来ます。
岡南飛行場へのアクセス等は 岡南飛行場管理事務所 をご覧ください。
クラブの ホームページ ができました。

!!!最近のコロナ感染拡大に伴い、当面の間、見学者等の受入を中止しております。再開まで今しばらくお待ちください!!!

 
06月06日
by OGC at 2021/6/6(日) 11:00:21 No.20210606105754  削除コメント
1040 x 777 x 52,478バイト <この画像は大きいので別画面で表示します>
No.1

06月06日
本日のリモート参加者
  会員      13名
  その他      0名


@本日の様子






METAR
RJBK 060000Z VRB01KT 20KM FEW030CU SCT180AC BKN/// 19/15 Q1009 A2980
RJOB 060000Z 11003KT 080V150 CAVOK 18/15 Q1009
RJOT 060000Z VRB02KT CAVOK 21/11 Q1009
RJOA 060000Z 21003KT 130V300 CAVOK 19/13 Q1010

TAF
RJOB 052305Z 0600/0706 18005KT 9999 FEW030
      BECMG 0602/0604 14006KT
      BECMG 0621/0700 20005KT
RJOT 052308Z 0600/0706 05005KT 9999 FEW030
      BECMG 0610/0612 22005KT
RJOA 052306Z 0600/0706 14005KT 9999 FEW030
      BECMG 0609/0611 34004KT
      BECMG 0700/0703 17005KT


本日、第12回リモートブリーフィングを開催しました。
勉強会ではADFについて講義がありました。

集合 10:00 解散    10:45

本日のフライトはありません。

    << 戻る || ホームページ || 最新の掲示板へ